createdAt,value
2022-08-08T00:34:17.038Z,6.07
2022-08-08T00:37:48.149Z,5.99
2022-08-08T00:45:48.021Z,5.93
2022-08-08T00:57:58.031Z,5.56
2022-08-08T01:02:03.841Z,5.37
2022-08-08T01:24:03.326Z,4.83
2022-08-08T01:27:47.000Z,5.05
2022-08-08T01:55:19.404Z,4.95
2022-08-08T02:02:48.544Z,5.00
2022-08-08T02:10:44.499Z,4.83
2022-08-08T02:18:12.345Z,4.58
2022-08-08T02:47:34.871Z,3.38
2022-08-08T02:55:59.980Z,4.04
2022-08-08T03:00:26.843Z,4.28
2022-08-08T03:05:04.389Z,4.35
2022-08-08T03:16:02.089Z,4.27
2022-08-08T03:20:23.770Z,4.18
2022-08-08T03:23:17.890Z,4.15
2022-08-08T03:24:02.343Z,4.31
2022-08-08T03:26:04.744Z,4.08
2022-08-08T03:28:53.704Z,4.01
2022-08-08T03:35:27.028Z,3.57
2022-08-08T03:38:53.570Z,3.32
2022-08-08T03:40:57.452Z,3.26
2022-08-08T03:43:38.484Z,3.22
2022-08-08T03:49:10.097Z,3.45
2022-08-08T03:52:48.742Z,3.37
2022-08-08T03:55:55.337Z,3.18
2022-08-08T03:58:47.977Z,2.95
2022-08-08T04:02:22.927Z,2.70
2022-08-08T04:04:38.074Z,2.42
2022-08-08T04:07:08.710Z,2.51
2022-08-08T04:10:07.919Z,2.63
2022-08-08T04:13:18.065Z,3.13
2022-08-08T04:16:05.709Z,2.91
2022-08-08T04:19:23.627Z,3.15
2022-08-08T04:21:54.886Z,3.32
2022-08-08T04:24:29.670Z,3.14
2022-08-08T04:27:19.445Z,2.74
2022-08-08T04:30:17.339Z,2.71
2022-08-08T04:33:08.048Z,2.86
2022-08-08T04:35:53.859Z,3.18
2022-08-08T04:38:29.667Z,3.41
2022-08-08T04:40:57.949Z,3.75
2022-08-08T04:43:31.733Z,3.83
2022-08-08T04:46:12.426Z,3.84
2022-08-08T04:48:43.474Z,3.80
2022-08-08T04:51:12.223Z,3.55
2022-08-08T04:54:38.786Z,4.01
2022-08-08T04:56:53.990Z,4.60
2022-08-08T04:59:24.203Z,4.85
2022-08-08T05:01:59.579Z,5.10
2022-08-08T05:04:29.074Z,5.33
2022-08-08T05:06:56.550Z,5.50
2022-08-08T05:09:23.982Z,5.78
2022-08-08T05:11:57.083Z,5.98
2022-08-08T05:15:00.197Z,6.22
2022-08-08T05:17:53.384Z,6.44
2022-08-08T05:20:19.517Z,6.61
2022-08-08T05:22:50.384Z,6.83
2022-08-08T05:25:28.172Z,7.07
2022-08-08T05:28:14.802Z,7.22
2022-08-08T05:30:47.405Z,7.44
2022-08-08T05:33:21.409Z,7.52
2022-08-08T05:35:57.361Z,7.65
2022-08-08T05:38:59.349Z,7.94
2022-08-08T05:41:33.346Z,8.04
2022-08-08T05:44:31.392Z,8.33
2022-08-08T05:47:03.207Z,8.48
2022-08-08T05:49:38.154Z,8.86
2022-08-08T05:52:05.941Z,8.72
2022-08-08T05:54:51.505Z,8.73
2022-08-08T05:58:05.370Z,9.59
2022-08-08T06:00:25.357Z,9.82
2022-08-08T06:03:23.704Z,9.75
2022-08-08T06:06:32.501Z,9.95
2022-08-08T06:09:58.621Z,10.17
2022-08-08T06:12:41.860Z,10.00
2022-08-08T06:15:31.450Z,9.97
2022-08-08T06:18:20.628Z,10.05
2022-08-08T06:20:56.474Z,9.96
2022-08-08T06:23:53.307Z,10.38
2022-08-08T06:30:02.097Z,11.10
2022-08-08T06:32:47.476Z,10.93
2022-08-08T06:36:06.466Z,10.83
2022-08-08T06:38:32.112Z,11.55
2022-08-08T06:41:58.505Z,11.09
2022-08-08T06:45:06.208Z,11.29
2022-08-08T06:47:58.233Z,11.61
2022-08-08T06:50:32.256Z,11.81
2022-08-08T06:53:17.101Z,11.83
2022-08-08T06:56:02.038Z,12.03
2022-08-08T06:59:01.550Z,11.77
2022-08-08T07:02:21.459Z,11.02
2022-08-08T07:05:20.699Z,11.01
2022-08-08T07:11:51.526Z,11.89
2022-08-08T07:14:51.642Z,12.08
2022-08-08T07:18:00.927Z,12.26
2022-08-08T07:21:18.915Z,12.46
2022-08-08T07:24:43.996Z,12.31
2022-08-08T07:27:22.954Z,12.17
2022-08-08T07:30:13.769Z,12.68
2022-08-08T07:32:59.442Z,12.38
2022-08-08T07:35:43.326Z,12.34
2022-08-08T07:38:25.582Z,12.36
2022-08-08T07:41:24.829Z,12.89
2022-08-08T07:44:10.515Z,13.37
2022-08-08T07:49:46.281Z,12.96
2022-08-08T07:52:23.449Z,13.21
2022-08-08T07:55:36.385Z,13.29
2022-08-08T07:58:44.880Z,13.70
2022-08-08T08:01:27.031Z,13.63
2022-08-08T08:04:24.077Z,13.91
2022-08-08T08:07:11.900Z,13.94
2022-08-08T08:09:48.793Z,14.11
2022-08-08T08:12:43.051Z,14.36
2022-08-08T08:15:15.913Z,14.43
2022-08-08T08:17:55.841Z,14.72
2022-08-08T08:21:14.518Z,14.93
2022-08-08T08:23:50.970Z,14.58
2022-08-08T08:26:27.643Z,14.66
2022-08-08T08:29:27.693Z,14.70
2022-08-08T08:32:03.267Z,14.49
2022-08-08T08:35:21.669Z,15.03
2022-08-08T08:38:19.106Z,15.39
2022-08-08T08:41:17.154Z,15.47
2022-08-08T08:43:46.959Z,15.63
2022-08-08T08:46:25.804Z,15.61
2022-08-08T08:49:11.454Z,15.48
2022-08-08T08:52:10.299Z,15.52
2022-08-08T08:55:05.155Z,15.38
2022-08-08T08:57:51.564Z,14.58
2022-08-08T09:01:08.355Z,14.65
2022-08-08T09:03:50.831Z,14.71
2022-08-08T09:07:12.664Z,14.70
2022-08-08T09:09:58.745Z,14.64
2022-08-08T09:13:11.006Z,14.75
2022-08-08T09:16:34.528Z,15.88
2022-08-08T09:19:12.483Z,15.78
2022-08-08T09:21:57.486Z,16.53
2022-08-08T09:24:44.537Z,17.41
2022-08-08T09:28:48.122Z,17.53
2022-08-08T09:30:17.734Z,17.49
2022-08-08T09:33:54.942Z,17.20
2022-08-08T09:35:55.085Z,16.80
2022-08-08T09:38:54.920Z,16.94
2022-08-08T09:42:20.317Z,17.81
2022-08-08T09:46:03.374Z,18.47
2022-08-08T09:48:42.918Z,18.69
2022-08-08T09:51:18.800Z,18.04
2022-08-08T09:54:37.478Z,17.51
2022-08-08T09:57:25.892Z,18.21
2022-08-08T10:00:34.154Z,18.46
2022-08-08T10:03:05.460Z,17.73
2022-08-08T10:05:40.038Z,18.18
2022-08-08T10:08:58.232Z,18.77
2022-08-08T10:12:26.811Z,19.51
2022-08-08T10:16:05.198Z,18.32
2022-08-08T10:19:02.484Z,18.00
2022-08-08T10:22:05.426Z,17.36
2022-08-08T10:25:36.246Z,18.27
2022-08-08T10:29:20.807Z,17.11
2022-08-08T10:33:08.830Z,17.89
2022-08-08T10:36:22.512Z,18.60
2022-08-08T10:39:56.360Z,19.40
2022-08-08T10:43:13.208Z,20.21
2022-08-08T10:45:55.625Z,19.13
2022-08-08T10:50:01.580Z,19.20
2022-08-08T10:56:27.814Z,20.08
2022-08-08T10:59:41.306Z,19.76
2022-08-08T11:05:38.334Z,19.58
2022-08-08T11:12:05.099Z,20.37
2022-08-08T11:15:30.921Z,20.98
2022-08-08T11:18:02.057Z,19.38
2022-08-08T11:20:52.327Z,18.76
2022-08-08T11:23:41.390Z,19.49
2022-08-08T11:28:03.504Z,19.11
2022-08-08T11:31:18.231Z,18.55
2022-08-08T11:34:23.414Z,17.71
2022-08-08T11:38:38.981Z,18.29
2022-08-08T11:40:51.208Z,18.48
2022-08-08T11:43:38.467Z,17.83
2022-08-08T11:46:14.094Z,17.58
2022-08-08T11:49:19.452Z,17.65
2022-08-08T11:51:52.298Z,18.17
2022-08-08T11:54:38.321Z,18.25
2022-08-08T11:57:44.610Z,18.85
2022-08-08T12:00:28.907Z,18.15
2022-08-08T12:02:57.505Z,20.12
2022-08-08T12:06:03.048Z,20.67
2022-08-08T12:08:37.291Z,21.15
2022-08-08T12:11:23.122Z,22.41
2022-08-08T12:14:19.390Z,22.13
2022-08-08T12:16:59.363Z,22.37
2022-08-08T12:19:37.754Z,21.66
2022-08-08T12:22:20.636Z,20.87
2022-08-08T12:25:07.506Z,21.20
2022-08-08T12:28:00.068Z,21.19
2022-08-08T12:31:10.280Z,20.38
2022-08-08T12:34:02.482Z,22.40
2022-08-08T12:36:49.223Z,21.32
2022-08-08T12:40:00.495Z,20.55
2022-08-08T12:43:03.786Z,19.69
2022-08-08T12:45:58.328Z,20.81
2022-08-08T12:48:37.531Z,20.92
2022-08-08T12:51:49.900Z,20.65
2022-08-08T12:54:33.283Z,21.02
2022-08-08T12:57:49.968Z,21.24
2022-08-08T13:00:39.713Z,21.01
2022-08-08T13:03:07.642Z,19.89
2022-08-08T13:10:04.086Z,19.29
2022-08-08T13:12:52.086Z,19.78
2022-08-08T13:15:31.783Z,19.47
2022-08-08T13:18:11.494Z,19.73
2022-08-08T13:20:48.880Z,18.93
2022-08-08T13:23:31.243Z,18.48
2022-08-08T13:26:14.270Z,18.33
2022-08-08T13:28:52.455Z,18.50
2022-08-08T13:31:20.537Z,19.12
2022-08-08T13:33:50.062Z,18.64
2022-08-08T13:36:25.991Z,17.98
2022-08-08T13:41:51.888Z,17.73
2022-08-08T13:44:32.637Z,17.59
2022-08-08T13:47:07.124Z,17.54
2022-08-08T13:50:37.624Z,17.61
2022-08-08T13:52:58.967Z,17.78
2022-08-08T13:55:36.362Z,17.60
2022-08-08T13:58:56.129Z,18.38
2022-08-08T14:01:57.066Z,19.82
2022-08-08T14:05:20.372Z,19.41
2022-08-08T14:08:01.656Z,20.64
2022-08-08T14:11:10.606Z,22.32
2022-08-08T14:14:10.960Z,22.44
2022-08-08T14:17:58.554Z,22.96
2022-08-08T14:21:27.142Z,22.71
2022-08-08T14:29:29.960Z,22.13
2022-08-08T14:34:49.942Z,21.05
2022-08-08T14:37:42.962Z,21.21
2022-08-08T14:40:48.048Z,20.77
2022-08-08T14:44:09.684Z,20.54
2022-08-08T14:50:02.549Z,22.10
2022-08-08T14:53:13.611Z,21.93
2022-08-08T14:56:01.961Z,20.45
2022-08-08T14:58:41.835Z,20.17
2022-08-08T15:01:23.311Z,20.56
2022-08-08T15:03:53.565Z,20.56
2022-08-08T15:06:35.737Z,20.63
2022-08-08T15:09:29.581Z,18.91
2022-08-08T15:11:57.861Z,19.41
2022-08-08T15:14:49.485Z,19.49
2022-08-08T15:17:17.377Z,19.60
2022-08-08T15:19:45.045Z,19.77
2022-08-08T15:22:23.549Z,19.08
2022-08-08T15:25:00.822Z,19.41
2022-08-08T15:28:05.117Z,20.23
2022-08-08T15:30:15.976Z,20.53
2022-08-08T15:33:03.032Z,20.53
2022-08-08T15:35:41.723Z,21.06
2022-08-08T15:38:13.031Z,21.61
2022-08-08T15:40:46.659Z,21.40
2022-08-08T15:43:18.609Z,22.09
2022-08-08T15:46:04.351Z,21.35
2022-08-08T15:49:06.359Z,20.93
2022-08-08T15:51:34.261Z,21.31
2022-08-08T15:54:38.088Z,22.12
2022-08-08T15:57:18.447Z,22.63
2022-08-08T16:00:06.437Z,21.25
2022-08-08T16:02:36.660Z,20.87
2022-08-08T16:05:14.667Z,21.05
2022-08-08T16:07:57.291Z,22.11
2022-08-08T16:13:11.480Z,20.13
2022-08-08T16:13:45.090Z,20.41
2022-08-08T16:16:17.454Z,21.20
2022-08-08T16:19:07.454Z,20.67
2022-08-08T16:21:38.826Z,20.29
2022-08-08T16:24:25.900Z,19.23
2022-08-08T16:26:53.631Z,18.90
2022-08-08T16:30:07.878Z,19.15
2022-08-08T16:32:27.598Z,18.67
2022-08-08T16:34:55.220Z,18.53
2022-08-08T16:37:27.776Z,18.04
2022-08-08T16:40:01.990Z,18.15
2022-08-08T16:42:41.722Z,18.13
2022-08-08T16:46:36.825Z,17.68
2022-08-08T16:48:44.877Z,17.50
2022-08-08T16:55:06.928Z,18.36
2022-08-08T16:57:27.904Z,18.43
2022-08-08T16:59:55.024Z,17.77
2022-08-08T17:02:38.635Z,17.71
2022-08-08T17:05:13.675Z,17.47
2022-08-08T17:07:49.197Z,17.32
2022-08-08T17:10:24.964Z,17.30
2022-08-08T17:12:55.719Z,17.21
2022-08-08T17:15:23.516Z,17.22
2022-08-08T17:18:02.488Z,17.20
2022-08-08T17:20:32.581Z,17.20
2022-08-08T17:23:18.308Z,17.22
2022-08-08T17:25:53.369Z,16.75
2022-08-08T17:28:34.519Z,16.82
2022-08-08T17:31:45.348Z,16.75
2022-08-08T17:34:36.523Z,16.66
2022-08-08T17:37:11.258Z,16.78
2022-08-08T17:40:03.283Z,16.82
2022-08-08T17:42:47.319Z,16.41
2022-08-08T17:45:24.536Z,16.21
2022-08-08T17:47:54.071Z,16.21
2022-08-08T17:50:27.495Z,16.30
2022-08-08T17:52:58.893Z,15.90
2022-08-08T17:56:06.271Z,15.78
2022-08-08T17:58:35.263Z,15.83
2022-08-08T18:01:10.119Z,15.81
2022-08-08T18:03:43.485Z,15.73
2022-08-08T18:06:31.106Z,15.51
2022-08-08T18:08:58.684Z,15.38
2022-08-08T18:11:26.502Z,15.19
2022-08-08T18:14:21.809Z,15.10
2022-08-08T18:16:54.245Z,14.97
2022-08-08T18:19:23.168Z,14.88
2022-08-08T18:22:02.440Z,14.84
2022-08-08T18:24:32.609Z,14.81
2022-08-08T18:27:06.184Z,14.49
2022-08-08T18:29:48.504Z,14.72
2022-08-08T18:32:16.154Z,14.51
2022-08-08T18:34:49.599Z,14.51
2022-08-08T18:37:34.502Z,14.26
2022-08-08T18:40:10.074Z,14.12
2022-08-08T18:42:45.654Z,14.14
2022-08-08T18:45:44.899Z,14.22
2022-08-08T18:48:07.655Z,14.01
2022-08-08T18:50:39.760Z,14.13
2022-08-08T18:54:00.759Z,14.02
2022-08-08T18:56:47.056Z,13.74
2022-08-08T18:59:23.007Z,13.81
2022-08-08T19:02:27.164Z,13.51
2022-08-08T19:04:56.118Z,13.78
2022-08-08T19:07:37.417Z,13.58
2022-08-08T19:10:14.823Z,13.69
2022-08-08T19:12:53.022Z,13.48
2022-08-08T19:15:26.126Z,13.49
2022-08-08T19:18:31.987Z,13.45
2022-08-08T19:21:48.862Z,13.26
2022-08-08T19:26:01.771Z,13.17
2022-08-08T19:28:18.154Z,13.03
2022-08-08T19:34:36.086Z,12.99
2022-08-08T19:36:59.305Z,13.00
2022-08-08T19:39:34.989Z,12.87
2022-08-08T19:42:13.945Z,12.79
2022-08-08T19:45:07.186Z,12.77
2022-08-08T19:47:37.536Z,12.41
2022-08-08T19:50:09.415Z,12.46
2022-08-08T19:52:42.095Z,12.53
2022-08-08T19:55:33.897Z,12.33
2022-08-08T19:58:02.280Z,12.40
2022-08-08T20:00:35.917Z,12.18
2022-08-08T20:03:14.591Z,12.14
2022-08-08T20:06:14.704Z,11.89
2022-08-08T20:09:04.620Z,11.86
2022-08-08T20:11:43.210Z,11.96
2022-08-08T20:14:34.509Z,11.93
2022-08-08T20:17:01.437Z,11.71
2022-08-08T20:19:34.848Z,11.62
2022-08-08T20:22:13.068Z,11.44
2022-08-08T20:24:56.938Z,11.50
2022-08-08T20:27:43.930Z,11.69
2022-08-08T20:30:52.845Z,11.64
2022-08-08T20:35:58.170Z,11.34
2022-08-08T20:38:32.566Z,11.36
2022-08-08T20:41:16.888Z,11.25
2022-08-08T20:43:49.221Z,11.38
2022-08-08T20:46:25.529Z,11.25
2022-08-08T20:48:58.563Z,11.14
2022-08-08T20:51:31.671Z,11.18
2022-08-08T20:54:03.588Z,11.18
2022-08-08T20:57:04.709Z,11.10
2022-08-08T20:59:34.427Z,10.81
2022-08-08T21:02:19.670Z,10.64
2022-08-08T21:05:01.247Z,10.69
2022-08-08T21:10:16.625Z,10.28
2022-08-08T21:12:48.437Z,10.44
2022-08-08T21:16:04.645Z,10.27
2022-08-08T21:18:09.912Z,10.15
2022-08-08T21:20:41.909Z,10.28
2022-08-08T21:23:13.152Z,10.20
2022-08-08T21:25:54.852Z,10.25
2022-08-08T21:28:35.609Z,10.09
2022-08-08T21:31:22.029Z,10.21
2022-08-08T21:33:56.872Z,10.00
2022-08-08T21:36:28.588Z,10.07
2022-08-08T21:39:04.471Z,10.16
2022-08-08T21:41:38.585Z,10.02
2022-08-08T21:44:19.623Z,9.97
2022-08-08T21:48:06.451Z,9.72
2022-08-08T21:50:01.823Z,9.73
2022-08-08T21:54:31.174Z,9.79
2022-08-08T21:56:19.953Z,9.85
2022-08-08T21:58:24.755Z,9.98
2022-08-08T22:01:00.042Z,9.98
2022-08-08T22:03:31.537Z,9.87
2022-08-08T22:06:01.329Z,10.01
2022-08-08T22:08:37.178Z,9.92
2022-08-08T22:11:48.183Z,10.06
2022-08-08T22:14:10.697Z,9.95
2022-08-08T22:16:39.038Z,9.83
2022-08-08T22:19:15.445Z,9.86
2022-08-08T22:22:04.411Z,9.85
2022-08-08T22:24:54.400Z,10.01
2022-08-08T22:30:59.748Z,9.95
2022-08-08T22:34:12.773Z,9.70
2022-08-08T22:36:42.653Z,9.84
2022-08-08T22:39:19.203Z,9.85
2022-08-08T22:41:59.541Z,9.80
2022-08-08T22:47:41.065Z,9.74
2022-08-08T22:50:25.570Z,9.75
2022-08-08T22:57:17.915Z,9.71
2022-08-08T22:59:59.925Z,9.71
2022-08-08T23:02:38.685Z,9.82
2022-08-08T23:05:52.946Z,9.79
2022-08-08T23:08:35.782Z,9.71
2022-08-08T23:11:13.071Z,9.67
2022-08-08T23:16:59.566Z,9.67
2022-08-08T23:23:48.241Z,9.89
2022-08-08T23:26:21.818Z,9.64
2022-08-08T23:32:35.233Z,9.75
2022-08-08T23:35:21.206Z,9.66
2022-08-08T23:38:02.708Z,9.83
2022-08-08T23:40:47.049Z,9.60
2022-08-08T23:43:31.803Z,9.66
2022-08-08T23:49:02.371Z,9.68
2022-08-08T23:49:18.971Z,9.62
2022-08-08T23:52:04.845Z,9.70
2022-08-08T23:54:41.730Z,9.72
2022-08-08T23:57:38.886Z,9.55
